Nearby METAR Reports

 

LIPQ - Ronchi Legionari, Italy
Distance from station: SSW 4km
Updated: 18/04/2019 11:50
Partly cloudy
Partly cloudy
 Wind from SSW
Wind: SSW 6 km/h
Temperature: 21°C
Dew Point: 5°C
Humidity: 35%
Barometer: 1024 hPa
Clouds: Partly cloudy
Visibility: 10 km
Cloud details: Partly cloudy 1372 m
Partly cloudy 2134 m
2019/04/18 11:50 LIPQ 181150Z 20003KT 150V240 9999 SCT045 SCT070 21/05 Q1024
LIVT - Trieste, Italy
Distance from station: SE 27km
Updated: 18/04/2019 11:55
Few Clouds
Few Clouds
 Wind from NNE
Wind: NNE 13 km/h, Gust: 31 km/h
Temperature: 21°C
Dew Point: 4°C
Humidity: 33%
Barometer: 1023 hPa
Clouds: Few Clouds
Visibility: 10 km
Cloud details: Few Clouds 1524 m
2019/04/18 11:55 LIVT 181155Z 03007G17KT 9999 FEW050 21/04 Q1023 RMK BKN SCT080 QUK 2 QUL 1 NE VIS MAR 20 KM VIS MIN 9999
 
LIPI - Rivolto (it-Afb), Italy
Distance from station: WNW 37km
Updated: 18/04/2019 11:55
Few Clouds
Few Clouds
 Wind from varies
Wind: varies 0 km/h
Temperature: 20°C
Dew Point: 5°C
Humidity: 38%
Barometer: 1024 hPa
Clouds: Few Clouds
Visibility: 10 km
Cloud details: Few Clouds 1524 m
2019/04/18 11:55 LIPI 181155Z /////KT 9999 FEW050 20/05 Q1024 RMK FEW VIS MIN 9999 WIND THR06 21002KT WIND THR24 17003KT BLU
LJPZ - Portoroz, Slovenia
Distance from station: SSE 43km
Updated: 18/04/2019 12:00
Mostly cloudy
Mostly cloudy
 Wind from WNW
Wind: WNW 15 km/h
Temperature: 19°C
Dew Point: 7°C
Humidity: 46%
Barometer: 1024 hPa
Clouds: Mostly cloudy
Visibility: 10 km
Cloud details: Few Clouds 1524 m
Mostly cloudy 2438 m
2019/04/18 12:00 LJPZ 181200Z 30008KT 9999 FEW050 BKN080 19/07 Q1024
 
LIPA - Aviano (it/Us-Af, Italy
Distance from station: WNW 73km
Updated: 18/04/2019 11:55
Partly cloudy
Partly cloudy
 Wind from ENE
Wind: ENE 6 km/h
Temperature: 20°C
Dew Point: 7°C
Humidity: 43%
Barometer: 1025 hPa
Clouds: Partly cloudy
Visibility: 10 km
Cloud details: Partly cloudy 2438 m
2019/04/18 11:55 LIPA 181155Z 06003KT 9999 SCT080 20/07 Q1025 RMK SCT VIS MIN 9999 WIND THR05 01003KT WIND THR23 05002KT A3027 BLU
LIVO - Tarvisio, Italy
Distance from station: N 73km
Updated: 18/04/2019 11:55
Partly cloudy
Partly cloudy
 Wind from E
Wind: E 13 km/h
Temperature: 14°C
Dew Point: 5°C
Humidity: 55%
Barometer: 1025 hPa
Clouds: Partly cloudy
Visibility: 10 km
Cloud details: Partly cloudy 1067 m
2019/04/18 11:55 LIVO 181155Z 09007KT 9999 SCT035 14/05 Q1025 RMK SCT VIS MIN 9999
 
LJLJ - Ljubljana/Brnik, Slovenia
Distance from station: ENE 86km
Updated: 18/04/2019 12:00
Mostly cloudy
Mostly cloudy
 Wind from SSE
Wind: SSE 17 km/h
Temperature: 16°C
Dew Point: 6°C
Humidity: 52%
Barometer: 1026 hPa
Clouds: Mostly cloudy
Visibility: 10 km
Cloud details: Partly cloudy 1676 m
Mostly cloudy 2438 m
2019/04/18 12:00 LJLJ 181200Z 15009KT 120V190 9999 SCT055 BKN080 16/06 Q1026 NOSIG
LIPZ - Venezia/Tessera, Italy
Distance from station: WSW 96km
Updated: 18/04/2019 11:50
Clear
Clear
 Wind from ESE
Wind: ESE 17 km/h
Temperature: 20°C
Dew Point: 6°C
Humidity: 40%
Barometer: 1025 hPa
Summary: Clear
Visibility: greater than 10 km
2019/04/18 11:50 LIPZ 181150Z 12009KT CAVOK 20/06 Q1025 NOSIG
 
LIPH - Treviso(Civ/It-A, Italy
Distance from station: WSW 105km
Updated: 18/04/2019 11:50
Clear
Clear
 Wind from E
Wind: E 7 km/h
Temperature: 20°C
Dew Point: 6°C
Humidity: 40%
Barometer: 1025 hPa
Summary: Clear
Visibility: greater than 10 km
2019/04/18 11:50 LIPH 181150Z 09004KT 020V170 CAVOK 20/06 Q1025
LDRI - Rijeka/Omisalj, Croatia
Distance from station: SE 109km
Updated: 18/04/2019 12:00
Few Clouds
Few Clouds
 Wind from ENE
Wind: ENE 24 km/h
Temperature: 20°C
Dew Point: 3°C
Humidity: 33%
Barometer: 1025 hPa
Clouds: Few Clouds
Visibility: 10 km
Cloud details: Few Clouds 1524 m
2019/04/18 12:00 LDRI 181200Z 06013KT 030V120 9999 FEW050 20/03 Q1025
 
LOWK - Klagenfurt(Civ/M, Austria
Distance from station: NE 110km
Updated: 18/04/2019 11:50
Partly cloudy
Partly cloudy
 Wind from E
Wind: E 13 km/h
Temperature: 16°C
Dew Point: 5°C
Humidity: 48%
Barometer: 1026 hPa
Clouds: Partly cloudy
Visibility: 10 km
Cloud details: Few Clouds 1524 m
Partly cloudy 2134 m
2019/04/18 11:50 LOWK 181150Z 10007KT 030V150 9999 FEW050 SCT070 16/05 Q1026 NOSIG
LIPS - Istrana (it-Afb), Italy
Distance from station: W 111km
Updated: 18/04/2019 11:55
Few Clouds
Few Clouds
 Wind from E
Wind: E 6 km/h
Temperature: 20°C
Dew Point: 8°C
Humidity: 46%
Barometer: 1025 hPa
Clouds: Few Clouds
Visibility: 10 km
Cloud details: Few Clouds 610 m
2019/04/18 11:55 LIPS 181155Z 09003KT 9999 FEW020 20/08 Q1025 RMK SCT SCT200 VIS MIN 9999 WIND THR26 10003KT WIND THR08 14003KT BLU
 
LDPL - Pula, Croatia
Distance from station: SSE 112km
Updated: 18/04/2019 12:00
Clear
Clear
 Wind from E
Wind: E 28 km/h
Temperature: 19°C
Dew Point: 7°C
Humidity: 46%
Barometer: 1024 hPa
Summary: Clear
Visibility: greater than 10 km
2019/04/18 12:00 LDPL 181200Z 09015KT CAVOK 19/07 Q1024 NOSIG
LIVD - Dobbiaco, Italy
Distance from station: NW 138km
Updated: 18/04/2019 11:55
Few Clouds
Few Clouds
 Wind from varies
Wind: varies 0 km/h
Temperature: 13°C
Dew Point: 1°C
Humidity: 44%
Barometer: 1025 hPa
Clouds: Few Clouds
Visibility: 10 km
Cloud details: Few Clouds 610 m
2019/04/18 11:55 LIVD 181155Z /////KT 9999 FEW020 13/01 Q1025 RMK FEW VIS MIN 9999
 
LIPU - Padova (civ/It-A, Italy
Distance from station: WSW 139km
Updated: 18/04/2019 06:00
NOT Current
Clear
Clear
 Wind from varies
Wind: varies 2 km/h
Temperature: 10°C
Dew Point: 7°C
Humidity: 82%
Barometer: 1024 hPa
Summary: Clear
Visibility: greater than 10 km
2019/04/18 06:00 LIPU 180600Z VRB01KT CAVOK 10/07 Q1024
LIVR - Rolle Pass, Italy
Distance from station: WNW 142km
Updated: 18/04/2019 11:55
Partly cloudy
Partly cloudy
 Wind from SE
Wind: SE 17 km/h
Temperature: 5°C
Wind Chill: 2°C
Dew Point: -3°C
Humidity: 57%
Barometer: 1026 hPa
Clouds: Partly cloudy
Visibility: 10 km
Cloud details: Partly cloudy 610 m
2019/04/18 11:55 LIVR 181155Z 13009KT 9999 SCT020 05/M03 Q1026 RMK SCT MON CLD SCT VIS MIN 9999
 
LJCE - Cerklje, Slovenia
Distance from station: E 157km
Updated: 18/04/2019 12:00
Partly cloudy
Partly cloudy
 Wind from E
Wind: E 13 km/h
Temperature: 16°C
Dew Point: 6°C
Humidity: 52%
Barometer: 1027 hPa
Clouds: Partly cloudy
Visibility: 10 km
Cloud details: Partly cloudy 1219 m
2019/04/18 12:00 LJCE 181200Z 08007KT 030V100 9999 SCT040 16/06 Q1027 RMK BLU
LDLO - Losinj Island, Croatia
Distance from station: SSE 159km
Updated: 15/04/2019 11:00
NOT Current
Clear
Clear
 Wind from NNE
Wind: NNE 30 km/h
Temperature: 16°C
Dew Point: 6°C
Humidity: 52%
Barometer: 1017 hPa
Summary: Clear
Visibility: greater than 10 km
2019/04/15 11:00 LDLO 151100Z 02016KT CAVOK 16/06 Q1017
 
LOXZ - Zeltweg (mil), Austria
Distance from station: NNE 179km
Updated: 18/04/2019 11:50
Partly cloudy
Partly cloudy
 Wind from NE
Wind: NE 15 km/h
Temperature: 15°C
Dew Point: 3°C
Humidity: 45%
Barometer: 1027 hPa
Clouds: Partly cloudy
Cloud details: Few Clouds 1219 m
Partly cloudy 1829 m
2019/04/18 11:50 LOXZ 181150Z 05008KT 30KM FEW040CU SCT060CU 15/03 Q1027 NOSIG
LIPB - Bolzano(Civ/It-A, Italy
Distance from station: WNW 181km
Updated: 18/04/2019 11:50
Partly cloudy
Partly cloudy
 Wind from S
Wind: S 11 km/h
Temperature: 21°C
Dew Point: 5°C
Humidity: 35%
Barometer: 1022 hPa
Clouds: Partly cloudy
Visibility: 10 km
Cloud details: Partly cloudy 2134 m
2019/04/18 11:50 LIPB 181150Z 17006KT 110V200 9999 SCT070 21/05 Q1022